Time;durP1;ratioP1;P1;durP2;ratioP2;P2;SDS_P1;SDS_P2;PMS_P1;PMS_P2;Temp;Humidity;BMP_temperature;BMP_pressure;BME280_temperature;BME280_humidity;BME280_pressure;Samples;Min_cycle;Max_cycle;Signal;HPM_P1;HPM_P2
2023/03/30 00:00:00;;;;;;;;;;;;;;;25.69;34.83;97567.78;597871;237;66421;-62
2023/03/30 00:02:29;;;;;;;;;;;;;;;25.68;34.69;97565.39;597808;237;43913;-62
2023/03/30 00:05:01;;;;;;;;;;;;;;;25.68;36.28;97562.70;597917;237;66453;-62
2023/03/30 00:07:29;;;;;;;;;;;;;;;25.66;36.13;97562.97;597861;237;67995;-62
2023/03/30 00:09:57;;;;;;;;;;;;;;;25.65;37.23;97556.00;597848;237;63148;-62
2023/03/30 00:12:26;;;;;;;;;;;;;;;25.65;36.08;97557.90;597924;237;68518;-62
2023/03/30 00:14:54;;;;;;;;;;;;;;;25.63;36.12;97555.48;597923;237;66615;-62
2023/03/30 00:17:21;;;;;;;;;;;;;;;25.63;36.62;97568.14;597949;237;65080;-62
2023/03/30 00:19:49;;;;;;;;;;;;;;;25.61;36.57;97557.66;597947;237;68542;-62
2023/03/30 00:22:16;;;;;;;;;;;;;;;25.61;34.74;97556.86;597704;237;68494;-62
2023/03/30 00:24:44;;;;;;;;;;;;;;;25.60;35.00;97549.88;597772;237;65064;-62
2023/03/30 00:27:11;;;;;;;;;;;;;;;25.59;36.34;97559.85;597938;237;68599;-62
2023/03/30 00:29:39;;;;;;;;;;;;;;;25.58;35.93;97554.74;597922;237;68574;-62
2023/03/30 00:32:07;;;;;;;;;;;;;;;25.57;34.63;97556.64;597931;237;65687;-62
2023/03/30 00:34:35;;;;;;;;;;;;;;;25.57;37.54;97553.95;597946;237;68715;-62
2023/03/30 00:37:02;;;;;;;;;;;;;;;25.56;36.90;97551.53;597941;237;68705;-62
2023/03/30 00:39:30;;;;;;;;;;;;;;;25.55;34.42;97549.94;597633;237;62751;-62
2023/03/30 00:41:57;;;;;;;;;;;;;;;25.54;37.96;97549.14;597920;237;66844;-62
2023/03/30 00:44:43;;;;;;;;;;;;;;;25.52;34.74;97545.94;597887;237;67346;-62
2023/03/30 00:47:11;;;;;;;;;;;;;;;25.53;37.23;97541.34;597910;237;62671;-62
2023/03/30 00:49:40;;;;;;;;;;;;;;;25.51;34.82;97538.95;597930;237;66645;-63
2023/03/30 00:52:09;;;;;;;;;;;;;;;25.50;37.14;97536.55;597891;236;66414;-63
2023/03/30 00:54:38;;;;;;;;;;;;;;;25.50;36.33;97540.03;597901;237;62884;-63
2023/03/30 00:57:06;;;;;;;;;;;;;;;25.49;36.04;97543.02;597923;237;68701;-63
2023/03/30 00:59:34;;;;;;;;;;;;;;;25.47;35.93;97537.92;597915;237;68656;-63
2023/03/30 01:02:02;;;;;;;;;;;;;;;25.46;36.15;97549.78;597919;237;65331;-63
2023/03/30 01:04:29;;;;;;;;;;;;;;;25.45;35.58;97546.30;597901;237;66695;-63
2023/03/30 01:06:57;;;;;;;;;;;;;;;25.44;36.08;97538.50;597899;237;67284;-63
2023/03/30 01:09:25;;;;;;;;;;;;;;;25.44;36.95;97547.36;597926;237;65074;-63
2023/03/30 01:11:52;;;;;;;;;;;;;;;25.43;37.66;97544.98;597935;237;69401;-63
2023/03/30 01:14:20;;;;;;;;;;;;;;;25.41;35.45;97545.25;597893;237;68573;-63
2023/03/30 01:16:49;;;;;;;;;;;;;;;25.41;36.74;97536.38;597884;237;65094;-63
2023/03/30 01:19:22;;;;;;;;;;;;;;;25.39;35.87;97542.03;597725;237;68961;-63
2023/03/30 01:21:54;;;;;;;;;;;;;;;25.39;34.35;97535.86;596712;237;68471;-62
2023/03/30 01:24:34;;;;;;;;;;;;;;;25.38;37.69;97539.66;590345;237;63113;-62
2023/03/30 01:27:13;;;;;;;;;;;;;;;25.37;36.27;97541.55;597910;237;69256;-62
2023/03/30 01:29:44;;;;;;;;;;;;;;;25.36;36.93;97542.61;597679;237;66889;-62
2023/03/30 01:32:18;;;;;;;;;;;;;;;25.34;34.78;97549.37;597777;237;42497;-62
2023/03/30 01:34:59;;;;;;;;;;;;;;;25.33;35.26;97547.77;597927;237;68727;-62
2023/03/30 01:37:28;;;;;;;;;;;;;;;25.32;36.75;97540.77;597686;237;68505;-62
2023/03/30 01:40:01;;;;;;;;;;;;;;;25.32;34.72;97548.84;597917;237;65180;-62
2023/03/30 01:42:42;;;;;;;;;;;;;;;25.31;37.98;97539.98;597814;237;65937;-62
2023/03/30 01:45:19;;;;;;;;;;;;;;;25.29;37.79;97542.17;589719;237;66801;-62
2023/03/30 01:47:54;;;;;;;;;;;;;;;25.28;38.57;97551.31;597937;237;64126;-62
2023/03/30 01:50:26;;;;;;;;;;;;;;;25.26;36.66;97545.41;597940;237;68570;-61
2023/03/30 01:52:59;;;;;;;;;;;;;;;25.27;35.08;97544.34;597507;237;69189;-61
2023/03/30 01:55:28;;;;;;;;;;;;;;;25.26;36.96;97550.79;597878;237;65870;-61
2023/03/30 01:58:03;;;;;;;;;;;;;;;25.23;36.47;97546.78;597879;237;68989;-61
2023/03/30 02:00:31;;;;;;;;;;;;;;;25.23;38.59;97554.05;597878;237;68885;-61
2023/03/30 02:03:04;;;;;;;;;;;;;;;25.22;36.91;97558.64;597912;237;64893;-61
2023/03/30 02:05:33;;;;;;;;;;;;;;;25.21;36.47;97559.73;597894;237;68734;-61
2023/03/30 02:08:02;;;;;;;;;;;;;;;25.21;37.58;97558.94;597917;237;66399;-61
2023/03/30 02:10:31;;;;;;;;;;;;;;;25.19;35.85;97561.91;597914;237;65672;-61
2023/03/30 02:13:00;;;;;;;;;;;;;;;25.18;38.37;97565.69;597875;237;69617;-62
2023/03/30 02:15:29;;;;;;;;;;;;;;;25.17;37.86;97574.03;597652;237;69468;-63
2023/03/30 02:17:56;;;;;;;;;;;;;;;25.17;36.50;97571.34;597875;237;62674;-63
2023/03/30 02:20:24;;;;;;;;;;;;;;;25.16;37.17;97575.92;597902;237;66372;-63
2023/03/30 02:22:52;;;;;;;;;;;;;;;25.15;37.40;97571.61;597921;235;68388;-63
2023/03/30 02:25:19;;;;;;;;;;;;;;;25.15;38.94;97570.81;597895;237;62787;-63
2023/03/30 02:27:47;;;;;;;;;;;;;;;25.14;37.09;97569.20;597890;237;66386;-63
2023/03/30 02:30:15;;;;;;;;;;;;;;;25.13;37.97;97564.91;597949;237;66543;-63
2023/03/30 02:32:44;;;;;;;;;;;;;;;25.12;35.74;97569.47;597909;237;65078;-63
2023/03/30 02:35:14;;;;;;;;;;;;;;;25.10;36.30;97570.83;597926;237;67589;-63
2023/03/30 02:38:00;;;;;;;;;;;;;;;25.11;37.28;97572.45;596874;237;68664;-63
2023/03/30 02:40:32;;;;;;;;;;;;;;;25.10;35.46;97576.21;597899;237;63902;-62
2023/03/30 02:43:02;;;;;;;;;;;;;;;25.08;38.49;97573.83;590743;237;68681;-62
2023/03/30 02:45:41;;;;;;;;;;;;;;;25.08;37.65;97578.41;597766;237;66865;-62
2023/03/30 02:48:10;;;;;;;;;;;;;;;25.06;36.23;97575.19;585783;237;65908;-62
2023/03/30 02:50:40;;;;;;;;;;;;;;;25.05;36.21;97562.84;597706;237;69946;-62
2023/03/30 02:53:23;;;;;;;;;;;;;;;25.03;35.49;97571.18;598979;237;47086;-62
2023/03/30 02:55:55;;;;;;;;;;;;;;;25.03;35.17;97580.05;598844;236;62920;-62
2023/03/30 02:58:26;;;;;;;;;;;;;;;25.02;39.44;97580.34;598899;236;45999;-63
2023/03/30 03:01:06;;;;;;;;;;;;;;;25.00;36.08;97583.30;598758;236;49791;-63
2023/03/30 03:03:36;;;;;;;;;;;;;;;24.99;36.73;97581.71;598906;236;46392;-62
2023/03/30 03:06:08;;;;;;;;;;;;;;;24.99;38.24;97576.33;599070;237;69089;-62
2023/03/30 03:08:39;;;;;;;;;;;;;;;24.98;37.87;97572.02;599071;237;68884;-62
2023/03/30 03:11:08;;;;;;;;;;;;;;;24.96;35.80;97579.59;599039;236;63621;-63
2023/03/30 03:13:36;;;;;;;;;;;;;;;24.96;36.87;97576.91;599065;237;66756;-63
2023/03/30 03:16:06;;;;;;;;;;;;;;;24.95;39.31;97580.66;599091;237;68599;-62
2023/03/30 03:18:38;;;;;;;;;;;;;;;24.94;37.13;97581.75;599119;237;63910;-63
2023/03/30 03:21:04;;;;;;;;;;;;;;;24.94;37.90;97584.44;599005;235;68732;-63
2023/03/30 03:23:32;;;;;;;;;;;;;;;24.92;35.77;97585.80;598894;237;69233;-63
2023/03/30 03:26:00;;;;;;;;;;;;;;;24.92;36.30;97597.36;598949;237;65294;-63
2023/03/30 03:28:28;;;;;;;;;;;;;;;24.91;36.59;97593.08;599119;237;68955;-63
2023/03/30 03:30:58;;;;;;;;;;;;;;;24.89;36.94;97592.55;599015;236;47213;-62
2023/03/30 03:33:26;;;;;;;;;;;;;;;24.88;36.99;97585.58;599092;237;64984;-63
2023/03/30 03:35:59;;;;;;;;;;;;;;;24.87;32.84;97577.78;589404;236;48280;-63
2023/03/30 03:38:27;;;;;;;;;;;;;;;24.88;38.04;97590.95;599048;237;68776;-63
2023/03/30 03:40:57;;;;;;;;;;;;;;;24.85;35.29;97596.88;599106;237;65068;-63
2023/03/30 03:43:25;;;;;;;;;;;;;;;24.85;37.34;97596.88;599010;237;69003;-63
2023/03/30 03:45:53;;;;;;;;;;;;;;;24.84;34.24;97597.17;599013;237;69139;-63
2023/03/30 03:48:22;;;;;;;;;;;;;;;24.84;38.45;97595.28;599100;237;62657;-63
2023/03/30 03:50:51;;;;;;;;;;;;;;;24.83;36.30;97598.23;598917;237;68800;-62
2023/03/30 03:53:18;;;;;;;;;;;;;;;24.82;38.27;97597.44;597688;237;65756;-62
2023/03/30 03:55:46;;;;;;;;;;;;;;;24.80;36.73;97594.25;597921;237;65778;-63
2023/03/30 03:58:14;;;;;;;;;;;;;;;24.81;39.69;97603.91;597978;237;68911;-63
2023/03/30 04:00:42;;;;;;;;;;;;;;;24.81;39.83;97598.53;597897;237;66537;-63
2023/03/30 04:03:11;;;;;;;;;;;;;;;24.79;37.27;97600.69;597923;237;65756;-62
2023/03/30 04:05:39;;;;;;;;;;;;;;;24.77;36.92;97600.16;597671;237;68787;-63
2023/03/30 04:08:10;;;;;;;;;;;;;;;24.76;35.46;97604.74;597922;237;67158;-63
2023/03/30 04:10:40;;;;;;;;;;;;;;;24.77;36.39;97608.23;597932;237;65701;-63
2023/03/30 04:13:21;;;;;;;;;;;;;;;24.75;39.71;97608.53;597849;237;46651;-62
2023/03/30 04:16:07;;;;;;;;;;;;;;;24.74;36.01;97612.28;598101;237;40777;-62
2023/03/30 04:18:37;;;;;;;;;;;;;;;24.73;36.04;97608.00;597581;237;43280;-62
2023/03/30 04:21:16;;;;;;;;;;;;;;;24.71;34.92;97612.84;582225;241;49438;-62
2023/03/30 04:23:51;;;;;;;;;;;;;;;24.72;39.06;97613.67;597633;235;50164;-63
2023/03/30 04:26:20;;;;;;;;;;;;;;;24.70;38.54;97613.14;597927;235;46802;-63
2023/03/30 04:28:53;;;;;;;;;;;;;;;24.70;35.26;97615.83;597982;237;49853;-63
2023/03/30 04:31:37;;;;;;;;;;;;;;;24.70;36.89;97621.20;597612;237;50693;-62
2023/03/30 04:34:09;;;;;;;;;;;;;;;24.69;34.09;97627.64;597983;237;45575;-62
2023/03/30 04:36:56;;;;;;;;;;;;;;;24.69;37.30;97628.47;598001;237;43351;-62
2023/03/30 04:39:28;;;;;;;;;;;;;;;24.69;33.54;97628.47;597699;237;48087;-62
2023/03/30 04:42:12;;;;;;;;;;;;;;;24.68;38.04;97623.36;597648;237;44588;-62
2023/03/30 04:44:56;;;;;;;;;;;;;;;24.70;36.35;97642.70;598071;237;43307;-63
2023/03/30 04:47:42;;;;;;;;;;;;;;;24.70;37.06;97645.39;598034;237;44597;-63
2023/03/30 04:50:26;;;;;;;;;;;;;;;24.70;37.67;97640.81;598001;237;46091;-63
2023/03/30 04:53:15;;;;;;;;;;;;;;;24.70;36.13;97638.13;582208;241;49571;-63
2023/03/30 04:56:00;;;;;;;;;;;;;;;24.71;36.57;97639.72;582284;243;44528;-63
2023/03/30 04:58:46;;;;;;;;;;;;;;;24.72;34.54;97638.66;591623;237;39175;-63
2023/03/30 05:01:16;;;;;;;;;;;;;;;24.73;36.51;97653.69;597054;237;51093;-63
2023/03/30 05:03:45;;;;;;;;;;;;;;;24.74;36.32;97649.91;597467;237;47940;-61
2023/03/30 05:06:30;;;;;;;;;;;;;;;24.74;35.41;97654.48;598065;237;39198;-61
2023/03/30 05:09:00;;;;;;;;;;;;;;;24.75;34.07;97650.73;593240;237;48553;-62
2023/03/30 05:11:38;;;;;;;;;;;;;;;24.77;37.25;97657.44;582134;241;50710;-61
2023/03/30 05:14:11;;;;;;;;;;;;;;;24.77;35.25;97654.75;597134;237;46033;-62
2023/03/30 05:16:58;;;;;;;;;;;;;;;24.78;34.42;97652.86;597462;237;48336;-62
2023/03/30 05:19:30;;;;;;;;;;;;;;;24.79;35.68;97646.39;597453;237;48614;-62
2023/03/30 05:22:01;;;;;;;;;;;;;;;24.80;34.97;97648.02;597611;237;46620;-62
2023/03/30 05:24:40;;;;;;;;;;;;;;;24.80;37.79;97651.50;597888;237;50942;-62
2023/03/30 05:27:24;;;;;;;;;;;;;;;24.82;37.28;97651.20;582137;241;50803;-62
2023/03/30 05:30:10;;;;;;;;;;;;;;;24.82;36.85;97656.58;594686;237;39467;-62
2023/03/30 05:32:40;;;;;;;;;;;;;;;24.82;38.03;97653.89;597670;237;47854;-62
2023/03/30 05:35:21;;;;;;;;;;;;;;;24.83;38.06;97649.31;597997;237;50751;-62
2023/03/30 05:37:54;;;;;;;;;;;;;;;24.83;37.49;97655.52;596388;237;47409;-62
2023/03/30 05:40:39;;;;;;;;;;;;;;;24.84;38.18;97649.05;597924;237;44485;-62
2023/03/30 05:43:15;;;;;;;;;;;;;;;24.85;37.40;97653.33;597929;237;50589;-62
2023/03/30 05:46:01;;;;;;;;;;;;;;;24.86;36.10;97656.84;597995;237;39235;-62
2023/03/30 05:48:37;;;;;;;;;;;;;;;24.88;38.75;97654.66;595236;237;49768;-63
2023/03/30 05:51:09;;;;;;;;;;;;;;;24.87;38.41;97648.48;596961;237;48440;-62
2023/03/30 05:53:38;;;;;;;;;;;;;;;24.87;38.63;97645.79;596535;237;48543;-64
2023/03/30 05:56:14;;;;;;;;;;;;;;;24.88;36.18;97644.72;597290;237;50942;-61
2023/03/30 05:58:53;;;;;;;;;;;;;;;24.90;39.74;97645.22;597423;237;50692;-62
2023/03/30 06:01:38;;;;;;;;;;;;;;;24.89;36.60;97640.94;591627;237;46068;-63
2023/03/30 06:04:07;;;;;;;;;;;;;;;24.91;40.86;97646.84;593150;237;71104;-62
2023/03/30 06:06:35;;;;;;;;;;;;;;;24.91;38.94;97651.40;597404;237;66737;-62
2023/03/30 06:09:03;;;;;;;;;;;;;;;24.92;36.13;97645.75;594882;237;65041;-62
2023/03/30 06:11:32;;;;;;;;;;;;;;;24.93;37.70;97641.97;590997;239;68894;-62
2023/03/30 06:14:04;;;;;;;;;;;;;;;24.94;37.71;97645.48;590716;240;45913;-62
2023/03/30 06:16:32;;;;;;;;;;;;;;;24.96;38.34;97646.81;590783;239;65763;-63
2023/03/30 06:19:00;;;;;;;;;;;;;;;24.96;38.68;97652.19;590879;239;65652;-62
2023/03/30 06:21:28;;;;;;;;;;;;;;;24.97;34.55;97648.41;591079;240;66478;-62
2023/03/30 06:24:00;;;;;;;;;;;;;;;24.98;38.35;97651.89;587006;240;44099;-62
2023/03/30 06:26:29;;;;;;;;;;;;;;;24.98;38.37;97652.69;590846;240;66144;-63
2023/03/30 06:28:57;;;;;;;;;;;;;;;25.00;38.36;97652.42;590919;240;68160;-63
2023/03/30 06:31:25;;;;;;;;;;;;;;;24.99;38.49;97648.11;590927;240;65039;-63
2023/03/30 06:33:54;;;;;;;;;;;;;;;25.00;39.18;97647.84;590582;239;45003;-63
2023/03/30 06:36:21;;;;;;;;;;;;;;;25.02;39.07;97659.13;590936;240;66920;-62
2023/03/30 06:38:49;;;;;;;;;;;;;;;25.01;39.32;97660.19;590927;239;63681;-63
2023/03/30 06:41:17;;;;;;;;;;;;;;;25.02;41.66;97653.74;590864;240;69402;-63
2023/03/30 06:43:46;;;;;;;;;;;;;;;25.02;40.82;97653.74;590953;239;48837;-62
2023/03/30 06:46:15;;;;;;;;;;;;;;;25.02;39.79;97651.05;591029;240;65675;-63
2023/03/30 06:48:45;;;;;;;;;;;;;;;25.03;40.29;97651.85;590864;239;47504;-62
2023/03/30 06:51:30;;;;;;;;;;;;;;;25.05;36.69;97648.89;575918;244;48481;-63
2023/03/30 06:53:58;;;;;;;;;;;;;;;25.07;41.32;97652.08;586975;239;64528;-63
2023/03/30 06:56:26;;;;;;;;;;;;;;;25.08;37.89;97648.33;591909;239;68498;-64
2023/03/30 06:58:56;;;;;;;;;;;;;;;25.08;37.09;97646.44;591360;239;48319;-63
2023/03/30 07:01:23;;;;;;;;;;;;;;;25.11;36.61;97650.45;592092;239;65233;-63
2023/03/30 07:04:01;;;;;;;;;;;;;;;25.12;38.22;97643.97;591681;239;46043;-64
2023/03/30 07:06:33;;;;;;;;;;;;;;;25.11;38.15;97645.07;591513;239;46925;-64
2023/03/30 07:09:03;;;;;;;;;;;;;;;25.12;38.90;97643.97;592033;239;65074;-64
2023/03/30 07:11:31;;;;;;;;;;;;;;;25.13;38.68;97649.08;592019;239;69480;-64
2023/03/30 07:14:00;;;;;;;;;;;;;;;25.12;39.38;97643.97;592017;239;66698;-62
2023/03/30 07:16:28;;;;;;;;;;;;;;;25.13;41.36;97642.91;591966;239;65026;-64
2023/03/30 07:18:55;;;;;;;;;;;;;;;25.13;36.44;97641.02;592194;239;68833;-61
2023/03/30 07:21:23;;;;;;;;;;;;;;;25.16;37.80;97642.38;593135;235;67371;-63
2023/03/30 07:23:51;;;;;;;;;;;;;;;25.16;36.97;97642.38;594128;238;64918;-61
2023/03/30 07:26:20;;;;;;;;;;;;;;;25.16;37.93;97637.78;593631;238;48382;-63
2023/03/30 07:28:49;;;;;;;;;;;;;;;25.17;39.42;97635.89;593623;238;46111;-63
2023/03/30 07:31:20;;;;;;;;;;;;;;;25.18;36.83;97626.73;593604;238;65786;-63
2023/03/30 07:33:48;;;;;;;;;;;;;;;25.18;37.01;97638.31;593645;238;68817;-63
2023/03/30 07:36:18;;;;;;;;;;;;;;;25.19;39.92;97639.91;593874;238;46851;-63
2023/03/30 07:38:46;;;;;;;;;;;;;;;25.19;38.69;97634.53;593997;238;63018;-63
2023/03/30 07:41:15;;;;;;;;;;;;;;;25.21;39.89;97637.74;593903;238;69391;-63
2023/03/30 07:43:43;;;;;;;;;;;;;;;25.21;38.68;97645.02;594113;238;65681;-63
2023/03/30 07:46:11;;;;;;;;;;;;;;;25.22;39.28;97636.64;593413;238;65152;-62
2023/03/30 07:48:41;;;;;;;;;;;;;;;25.23;37.21;97634.75;593962;238;68347;-62
2023/03/30 07:51:11;;;;;;;;;;;;;;;25.24;37.29;97642.55;592239;238;66640;-63
2023/03/30 07:53:40;;;;;;;;;;;;;;;25.25;40.25;97640.66;586162;240;42043;-62
2023/03/30 07:56:10;;;;;;;;;;;;;;;25.25;38.94;97643.34;586152;242;49828;-63
2023/03/30 07:58:39;;;;;;;;;;;;;;;25.26;39.07;97636.88;586232;242;45170;-62
2023/03/30 08:01:09;;;;;;;;;;;;;;;25.28;33.25;97625.84;586560;240;46715;-62
2023/03/30 08:03:39;;;;;;;;;;;;;;;25.31;36.48;97630.65;586485;241;49257;-62
2023/03/30 08:06:07;;;;;;;;;;;;;;;25.31;31.71;97636.83;586284;242;68743;-62
2023/03/30 08:08:39;;;;;;;;;;;;;;;25.32;34.56;97625.00;586460;240;42401;-63
2023/03/30 08:11:07;;;;;;;;;;;;;;;25.35;36.94;97623.63;586338;242;69720;-63
2023/03/30 08:13:36;;;;;;;;;;;;;;;25.34;37.73;97633.56;586404;242;66416;-62
2023/03/30 08:16:04;;;;;;;;;;;;;;;25.34;38.48;97636.25;584835;242;65859;-62
2023/03/30 08:18:31;;;;;;;;;;;;;;;25.35;37.15;97639.77;585869;240;69121;-62
2023/03/30 08:20:59;;;;;;;;;;;;;;;25.33;37.94;97634.66;584984;240;68501;-62
2023/03/30 08:23:26;;;;;;;;;;;;;;;25.34;38.91;97636.25;584479;241;65053;-62
2023/03/30 08:25:57;;;;;;;;;;;;;;;25.35;38.15;97629.81;585840;242;68729;-62
2023/03/30 08:28:25;;;;;;;;;;;;;;;25.36;37.91;97631.40;586364;242;68366;-62
2023/03/30 08:30:53;;;;;;;;;;;;;;;25.37;37.23;97624.13;586122;242;63886;-62
2023/03/30 08:33:24;;;;;;;;;;;;;;;25.38;39.35;97621.16;586359;242;68804;-62
2023/03/30 08:35:51;;;;;;;;;;;;;;;25.39;36.64;97620.06;586293;242;68695;-62
2023/03/30 08:38:18;;;;;;;;;;;;;;;25.39;38.43;97632.72;586330;242;62778;-62
2023/03/30 08:40:47;;;;;;;;;;;;;;;25.39;39.66;97617.38;585917;241;66633;-62
2023/03/30 08:43:22;;;;;;;;;;;;;;;25.39;40.04;97621.95;580176;242;69428;-64
2023/03/30 08:45:51;;;;;;;;;;;;;;;25.38;39.04;97610.40;584737;242;62889;-63
2023/03/30 08:48:20;;;;;;;;;;;;;;;25.40;40.42;97607.41;585426;241;67440;-63
2023/03/30 08:50:49;;;;;;;;;;;;;;;25.40;38.78;97600.16;586587;237;68550;-62
2023/03/30 08:53:16;;;;;;;;;;;;;;;25.39;37.35;97601.23;597700;237;65136;-65
2023/03/30 08:55:48;;;;;;;;;;;;;;;25.41;38.57;97603.65;597678;237;66800;-62
2023/03/30 08:58:17;;;;;;;;;;;;;;;25.42;34.50;97594.48;597794;237;66314;-62
2023/03/30 09:00:46;;;;;;;;;;;;;;;25.42;38.13;97592.58;597762;237;62938;-63
2023/03/30 09:03:24;;;;;;;;;;;;;;;25.42;35.12;97595.27;597316;237;66760;-64
2023/03/30 09:05:53;;;;;;;;;;;;;;;25.42;37.79;97589.89;597582;237;67044;-63
2023/03/30 09:08:22;;;;;;;;;;;;;;;25.42;36.16;97581.81;597801;237;62960;-64
2023/03/30 09:11:03;;;;;;;;;;;;;;;25.43;37.53;97582.64;594534;236;68949;-64
2023/03/30 09:13:36;;;;;;;;;;;;;;;25.43;37.45;97577.27;597894;237;68677;-63
2023/03/30 09:16:08;;;;;;;;;;;;;;;25.42;35.30;97564.88;597823;237;67415;-63
2023/03/30 09:18:37;;;;;;;;;;;;;;;25.43;36.59;97571.88;596591;237;66696;-63
2023/03/30 09:21:05;;;;;;;;;;;;;;;25.43;37.87;97564.61;597842;237;68732;-63
2023/03/30 09:23:34;;;;;;;;;;;;;;;25.44;35.77;97573.47;597857;237;65221;-63
2023/03/30 09:26:03;;;;;;;;;;;;;;;25.42;37.49;97568.36;597808;237;68620;-62
2023/03/30 09:28:45;;;;;;;;;;;;;;;25.43;39.08;97563.81;597753;237;68699;-62
2023/03/30 09:31:19;;;;;;;;;;;;;;;25.43;37.51;97558.43;597833;237;62913;-63
2023/03/30 09:33:49;;;;;;;;;;;;;;;25.43;36.11;97558.43;597691;237;69057;-62
2023/03/30 09:36:24;;;;;;;;;;;;;;;25.42;37.85;97562.19;597792;237;68551;-62
2023/03/30 09:38:52;;;;;;;;;;;;;;;25.43;38.94;97556.53;597839;237;65055;-62
2023/03/30 09:41:37;;;;;;;;;;;;;;;25.42;36.42;97556.80;597800;237;69546;-62
2023/03/30 09:44:06;;;;;;;;;;;;;;;25.42;37.86;97548.73;597839;237;68607;-63
2023/03/30 09:46:35;;;;;;;;;;;;;;;25.42;36.61;97549.53;597688;237;65175;-62
2023/03/30 09:49:04;;;;;;;;;;;;;;;25.42;37.48;97549.53;597818;237;68829;-62
2023/03/30 09:51:32;;;;;;;;;;;;;;;25.42;38.25;97535.28;597562;237;68529;-62
2023/03/30 09:54:01;;;;;;;;;;;;;;;25.41;37.18;97526.41;598822;237;65031;-63
2023/03/30 09:56:36;;;;;;;;;;;;;;;25.41;37.50;97526.41;599001;237;66671;-63
2023/03/30 09:59:23;;;;;;;;;;;;;;;25.41;39.32;97523.72;598944;237;68391;-62
2023/03/30 10:01:51;;;;;;;;;;;;;;;25.41;38.15;97518.34;586356;241;62783;-63
2023/03/30 10:04:20;;;;;;;;;;;;;;;25.41;37.78;97512.96;586637;241;45987;-65
2023/03/30 10:06:48;;;;;;;;;;;;;;;25.38;31.57;97513.54;590887;236;66490;-64
2023/03/30 10:09:17;;;;;;;;;;;;;;;25.43;34.31;97524.25;598437;237;63056;-64
2023/03/30 10:11:46;;;;;;;;;;;;;;;25.46;36.76;97509.42;598306;237;68938;-64
2023/03/30 10:14:17;;;;;;;;;;;;;;;25.47;38.05;97516.39;598718;237;68575;-64
2023/03/30 10:16:45;;;;;;;;;;;;;;;25.48;39.77;97504.52;598539;236;65078;-64
2023/03/30 10:19:17;;;;;;;;;;;;;;;25.50;38.00;97509.63;598771;237;68742;-63
2023/03/30 10:21:47;;;;;;;;;;;;;;;25.50;36.45;97494.28;598875;237;66097;-64
2023/03/30 10:24:17;;;;;;;;;;;;;;;25.51;37.80;97495.91;599056;237;63181;-64
2023/03/30 10:26:45;;;;;;;;;;;;;;;25.52;37.11;97499.39;598951;236;68688;-64
2023/03/30 10:29:14;;;;;;;;;;;;;;;25.52;37.49;97492.11;597859;237;68737;-64
2023/03/30 10:31:49;;;;;;;;;;;;;;;25.52;37.42;97485.94;594384;238;65797;-64
2023/03/30 10:34:34;;;;;;;;;;;;;;;25.53;38.60;97488.31;594859;238;68859;-64
2023/03/30 10:37:03;;;;;;;;;;;;;;;25.53;35.54;97482.14;594867;238;68590;-62
2023/03/30 10:39:32;;;;;;;;;;;;;;;25.54;37.83;97486.45;592697;238;64928;-62
2023/03/30 10:42:00;;;;;;;;;;;;;;;25.52;39.27;97477.86;592684;238;68848;-62
2023/03/30 10:44:32;;;;;;;;;;;;;;;25.52;38.50;97477.86;593477;239;68793;-62
2023/03/30 10:47:07;;;;;;;;;;;;;;;25.53;38.05;97474.86;593664;239;62761;-62
2023/03/30 10:49:53;;;;;;;;;;;;;;;25.54;37.12;97470.31;593479;238;68913;-63
2023/03/30 10:52:22;;;;;;;;;;;;;;;25.55;38.69;97461.13;591915;237;68303;-61
2023/03/30 10:55:00;;;;;;;;;;;;;;;25.53;38.83;97455.23;591537;239;65075;-62
2023/03/30 10:57:32;;;;;;;;;;;;;;;25.54;37.51;97448.78;592205;239;68795;-62
2023/03/30 11:00:01;;;;;;;;;;;;;;;25.52;37.65;97443.67;591557;239;66755;-62
2023/03/30 11:02:36;;;;;;;;;;;;;;;25.53;36.11;97445.27;592213;239;65119;-61
2023/03/30 11:05:14;;;;;;;;;;;;;;;25.54;36.27;97433.42;592145;239;68509;-61
2023/03/30 11:08:01;;;;;;;;;;;;;;;25.54;37.20;97425.35;592494;239;69467;-63
2023/03/30 11:10:31;;;;;;;;;;;;;;;25.55;36.68;97424.25;590554;239;65289;-64
2023/03/30 11:13:00;;;;;;;;;;;;;;;25.55;37.94;97418.08;587471;241;68858;-64
2023/03/30 11:15:31;;;;;;;;;;;;;;;25.56;36.80;97417.77;587774;241;68735;-65
2023/03/30 11:18:17;;;;;;;;;;;;;;;25.57;36.74;97418.59;587723;241;65164;-65
2023/03/30 11:20:54;;;;;;;;;;;;;;;25.55;36.65;97408.10;587748;241;52921;-65
2023/03/30 11:23:23;;;;;;;;;;;;;;;25.56;36.95;97412.38;587623;241;66602;-64
2023/03/30 11:26:02;;;;;;;;;;;;;;;25.57;37.72;97411.31;587041;241;63085;-64
2023/03/30 11:28:46;;;;;;;;;;;;;;;25.57;37.47;97407.83;587812;240;68950;-65
2023/03/30 11:31:16;;;;;;;;;;;;;;;25.57;37.28;97405.13;587683;241;67121;-64
2023/03/30 11:33:45;;;;;;;;;;;;;;;25.56;38.16;97392.75;587791;241;65309;-64
2023/03/30 11:36:17;;;;;;;;;;;;;;;25.56;38.24;97392.75;587552;241;68674;-64
2023/03/30 11:38:46;;;;;;;;;;;;;;;25.56;38.78;97390.85;587734;241;69284;-64
2023/03/30 11:41:15;;;;;;;;;;;;;;;25.55;37.68;97383.09;587743;241;65043;-64
2023/03/30 11:43:44;;;;;;;;;;;;;;;25.55;36.50;97383.09;587752;241;68609;-64
2023/03/30 11:46:16;;;;;;;;;;;;;;;25.55;38.32;97378.50;587677;241;66666;-62
2023/03/30 11:48:54;;;;;;;;;;;;;;;25.56;38.11;97373.91;587573;241;65104;-64
2023/03/30 11:51:23;;;;;;;;;;;;;;;25.54;33.55;97373.42;588000;241;69732;-63
2023/03/30 11:53:54;;;;;;;;;;;;;;;25.53;37.59;97371.81;588822;241;68530;-64
2023/03/30 11:56:30;;;;;;;;;;;;;;;25.50;37.19;97367.02;588677;241;63060;-64
2023/03/30 11:59:00;;;;;;;;;;;;;;;25.47;37.45;97366.50;589073;241;68370;-64
2023/03/30 12:01:41;;;;;;;;;;;;;;;25.46;36.98;97359.53;588231;241;68576;-65
2023/03/30 12:04:12;;;;;;;;;;;;;;;25.44;37.42;97358.22;588749;240;65397;-64
2023/03/30 12:06:41;;;;;;;;;;;;;;;25.42;36.58;97355.80;588981;241;66745;-63
2023/03/30 12:09:13;;;;;;;;;;;;;;;25.42;36.47;97352.32;588008;240;66259;-64
2023/03/30 12:11:48;;;;;;;;;;;;;;;25.42;38.42;97352.32;588811;241;65049;-64
2023/03/30 12:14:30;;;;;;;;;;;;;;;25.41;37.10;97340.77;588980;241;74035;-64
2023/03/30 12:17:01;;;;;;;;;;;;;;;25.42;34.07;97346.94;589115;241;53365;-64
2023/03/30 12:19:36;;;;;;;;;;;;;;;25.40;38.02;97347.25;588714;240;65156;-63
2023/03/30 12:22:05;;;;;;;;;;;;;;;25.40;36.66;97344.56;588955;241;66639;-64
2023/03/30 12:24:40;;;;;;;;;;;;;;;25.40;36.81;97332.97;589053;241;66717;-65
2023/03/30 12:27:09;;;;;;;;;;;;;;;25.40;37.16;97338.35;588758;241;62786;-63
2023/03/30 12:29:48;;;;;;;;;;;;;;;25.37;34.04;97329.00;588622;241;68951;-64
2023/03/30 12:32:20;;;;;;;;;;;;;;;25.36;34.37;97326.59;589016;240;66670;-66
2023/03/30 12:34:47;;;;;;;;;;;;;;;25.34;34.11;97329.56;589068;241;62983;-65
2023/03/30 12:37:20;;;;;;;;;;;;;;;25.34;36.29;97328.77;588954;241;66818;-65
2023/03/30 12:39:49;;;;;;;;;;;;;;;25.31;35.94;97322.08;589028;241;68780;-65
2023/03/30 12:42:25;;;;;;;;;;;;;;;25.31;34.50;97313.21;588806;240;65173;-65
2023/03/30 12:45:01;;;;;;;;;;;;;;;25.32;33.19;97299.48;589007;241;69073;-63
2023/03/30 12:47:37;;;;;;;;;;;;;;;25.33;34.70;97303.77;589011;241;68445;-64
2023/03/30 12:50:08;;;;;;;;;;;;;;;25.34;36.21;97296.48;589056;241;64992;-64
2023/03/30 12:52:37;;;;;;;;;;;;;;;25.33;35.99;97289.52;588598;240;68872;-65
2023/03/30 12:55:12;;;;;;;;;;;;;;;25.32;36.07;97291.41;588813;240;68980;-65
2023/03/30 12:57:44;;;;;;;;;;;;;;;25.32;33.65;97286.03;588683;240;65083;-64
2023/03/30 13:00:14;;;;;;;;;;;;;;;25.31;33.93;97275.55;588752;241;68747;-64
2023/03/30 13:02:53;;;;;;;;;;;;;;;25.30;33.95;97274.76;589000;241;66792;-64
2023/03/30 13:05:31;;;;;;;;;;;;;;;25.30;33.90;97271.27;588800;241;64917;-65
2023/03/30 13:08:00;;;;;;;;;;;;;;;25.30;33.27;97260.52;588886;241;69043;-65
2023/03/30 13:10:34;;;;;;;;;;;;;;;25.29;35.20;97262.41;588937;240;68715;-65